TimeCST,TemperatureF,Dew PointF,Humidity,Sea Level PressureIn,VisibilityMPH,Wind Direction,Wind SpeedMPH,Gust SpeedMPH,PrecipitationIn,Events,Conditions,WindDirDegrees,DateUTC
12:53 AM,25.0,15.1,66,30.38,10.0,SSE,6.9,-,N/A,,Clear,160,2012-11-24 06:53:00
1:53 AM,26.1,15.1,63,30.34,10.0,SSE,8.1,-,N/A,,Clear,160,2012-11-24 07:53:00
2:53 AM,25.0,15.1,66,30.31,10.0,South,9.2,-,N/A,,Clear,170,2012-11-24 08:53:00
3:53 AM,26.1,15.1,63,30.29,10.0,South,8.1,-,N/A,,Clear,170,2012-11-24 09:53:00
4:53 AM,25.0,15.1,66,30.25,10.0,South,15.0,-,N/A,,Clear,170,2012-11-24 10:53:00
5:53 AM,27.0,15.1,61,30.20,10.0,South,16.1,-,N/A,,Clear,170,2012-11-24 11:53:00
6:53 AM,27.0,16.0,63,30.19,10.0,South,15.0,-,N/A,,Clear,180,2012-11-24 12:53:00
7:53 AM,27.0,16.0,63,30.15,10.0,South,13.8,-,N/A,,Clear,180,2012-11-24 13:53:00
8:53 AM,30.0,18.0,61,30.15,10.0,South,9.2,-,N/A,,Clear,180,2012-11-24 14:53:00
9:53 AM,35.1,19.0,52,30.11,10.0,South,18.4,24.2,N/A,,Clear,190,2012-11-24 15:53:00
10:53 AM,37.9,19.0,47,30.08,10.0,South,18.4,-,N/A,,Clear,190,2012-11-24 16:53:00
11:53 AM,39.0,19.9,46,30.03,10.0,SSW,13.8,-,N/A,,Clear,200,2012-11-24 17:53:00
12:53 PM,44.1,21.0,40,29.97,10.0,SSW,15.0,-,N/A,,Clear,200,2012-11-24 18:53:00
1:53 PM,48.9,21.9,35,29.92,10.0,SSW,12.7,-,N/A,,Clear,200,2012-11-24 19:53:00
2:53 PM,50.0,21.9,33,29.90,10.0,SSW,13.8,-,N/A,,Clear,210,2012-11-24 20:53:00
3:53 PM,50.0,21.9,33,29.88,10.0,SSW,15.0,-,N/A,,Clear,210,2012-11-24 21:53:00
4:53 PM,50.0,23.0,35,29.88,10.0,SSW,9.2,-,N/A,,Clear,210,2012-11-24 22:53:00
5:53 PM,46.9,23.0,39,29.88,10.0,SSW,6.9,-,N/A,,Clear,200,2012-11-24 23:53:00
6:53 PM,44.1,24.1,45,29.88,10.0,Calm,Calm,-,N/A,,Clear,0,2012-11-25 00:53:00
7:53 PM,39.0,24.1,55,29.90,10.0,Calm,Calm,-,N/A,,Clear,0,2012-11-25 01:53:00
8:53 PM,37.9,24.1,57,29.91,10.0,North,4.6,-,N/A,,Clear,10,2012-11-25 02:53:00
9:53 PM,39.0,25.0,57,29.92,10.0,Calm,Calm,-,N/A,,Clear,0,2012-11-25 03:53:00
10:53 PM,35.1,23.0,61,29.94,10.0,NW,5.8,-,N/A,,Clear,310,2012-11-25 04:53:00
11:53 PM,32.0,21.9,66,29.96,10.0,WNW,5.8,-,N/A,,Clear,290,2012-11-25 05:53:00